createdAt,value
2019-02-18T00:00:47.966Z,29.77
2019-02-18T00:03:14.986Z,37.10
2019-02-18T00:05:42.026Z,31.02
2019-02-18T00:08:09.072Z,25.48
2019-02-18T00:10:36.113Z,30.55
2019-02-18T00:13:03.158Z,32.20
2019-02-18T00:15:30.231Z,30.27
2019-02-18T00:17:57.278Z,28.60
2019-02-18T00:20:24.320Z,25.92
2019-02-18T00:22:51.365Z,28.23
2019-02-18T00:25:18.394Z,26.23
2019-02-18T00:27:45.443Z,31.25
2019-02-18T00:30:12.459Z,27.70
2019-02-18T00:32:39.507Z,30.60
2019-02-18T00:35:08.352Z,33.58
2019-02-18T00:37:35.372Z,37.50
2019-02-18T00:40:02.435Z,28.15
2019-02-18T00:42:29.509Z,26.97
2019-02-18T00:44:56.504Z,32.03
2019-02-18T00:47:23.567Z,34.10
2019-02-18T00:49:50.593Z,31.15
2019-02-18T00:52:17.627Z,27.48
2019-02-18T00:54:44.649Z,31.35
2019-02-18T00:57:11.668Z,36.50
2019-02-18T00:59:38.685Z,28.07
2019-02-18T01:02:05.747Z,25.30
2019-02-18T01:04:32.773Z,26.80
2019-02-18T01:06:59.825Z,25.85
2019-02-18T01:09:26.894Z,23.38
2019-02-18T01:11:53.951Z,30.57
2019-02-18T01:14:20.989Z,25.57
2019-02-18T01:16:48.005Z,29.25
2019-02-18T01:19:15.030Z,23.22
2019-02-18T01:21:42.061Z,28.15
2019-02-18T01:24:09.099Z,31.77
2019-02-18T01:26:36.133Z,27.13
2019-02-18T01:29:03.152Z,27.60
2019-02-18T01:31:30.186Z,28.07
2019-02-18T01:33:57.213Z,31.80
2019-02-18T01:36:24.247Z,27.75
2019-02-18T01:38:51.253Z,24.90
2019-02-18T01:41:18.275Z,28.07
2019-02-18T01:43:45.290Z,30.00
2019-02-18T01:46:12.342Z,28.60
2019-02-18T01:48:39.450Z,25.12
2019-02-18T01:51:06.439Z,30.35
2019-02-18T01:53:33.474Z,24.37
2019-02-18T01:56:00.498Z,27.55
2019-02-18T01:58:27.518Z,25.90
2019-02-18T02:00:54.536Z,27.90
2019-02-18T02:03:21.567Z,28.10
2019-02-18T02:05:48.615Z,24.90
2019-02-18T02:08:15.633Z,21.50
2019-02-18T02:10:42.686Z,22.58
2019-02-18T02:13:32.358Z,23.70
2019-02-18T02:16:00.890Z,23.30
2019-02-18T02:18:27.925Z,20.10
2019-02-18T02:20:54.950Z,23.25
2019-02-18T02:23:21.982Z,20.75
2019-02-18T02:25:49.018Z,23.85
2019-02-18T02:28:16.054Z,22.07
2019-02-18T02:30:43.096Z,18.73
2019-02-18T02:33:10.123Z,20.72
2019-02-18T02:35:37.207Z,19.45
2019-02-18T02:38:07.556Z,16.67
2019-02-18T02:40:33.150Z,23.85
2019-02-18T02:43:00.187Z,25.88
2019-02-18T02:45:27.316Z,19.52
2019-02-18T02:47:54.382Z,19.98
2019-02-18T02:50:21.416Z,31.23
2019-02-18T02:52:48.473Z,21.93
2019-02-18T02:55:17.763Z,22.90
2019-02-18T02:57:44.808Z,20.30
2019-02-18T03:00:12.283Z,18.98
2019-02-18T03:02:39.327Z,16.25
2019-02-18T03:05:06.457Z,29.98
2019-02-18T03:07:33.487Z,21.45
2019-02-18T03:10:00.522Z,23.00
2019-02-18T03:12:27.597Z,20.48
2019-02-18T03:14:54.621Z,18.98
2019-02-18T03:17:21.692Z,22.98
2019-02-18T03:19:48.713Z,18.17
2019-02-18T03:22:15.743Z,13.85
2019-02-18T03:25:17.228Z,14.47
2019-02-18T03:27:44.289Z,18.35
2019-02-18T03:30:40.574Z,14.75
2019-02-18T03:33:07.849Z,16.70
2019-02-18T03:35:34.920Z,14.65
2019-02-18T03:38:01.965Z,19.35
2019-02-18T03:40:29.020Z,18.73
2019-02-18T03:42:56.070Z,14.85
2019-02-18T03:45:23.088Z,18.98
2019-02-18T03:47:50.130Z,18.35
2019-02-18T03:50:17.204Z,24.35
2019-02-18T03:52:44.256Z,23.00
2019-02-18T03:55:11.519Z,27.77
2019-02-18T03:57:38.901Z,26.20
2019-02-18T04:00:06.141Z,19.62
2019-02-18T04:02:33.197Z,27.30
2019-02-18T04:05:00.298Z,20.92
2019-02-18T04:07:27.390Z,20.40
2019-02-18T04:09:54.414Z,25.50
2019-02-18T04:12:21.454Z,27.50
2019-02-18T04:14:48.496Z,23.75
2019-02-18T04:17:15.559Z,23.75
2019-02-18T04:19:42.608Z,19.65
2019-02-18T04:22:09.648Z,22.60
2019-02-18T04:24:36.686Z,17.92
2019-02-18T04:27:03.752Z,20.35
2019-02-18T04:29:30.794Z,17.05
2019-02-18T04:31:57.832Z,25.15
2019-02-18T04:34:24.880Z,20.08
2019-02-18T04:36:51.924Z,23.35
2019-02-18T04:39:18.982Z,21.12
2019-02-18T04:41:46.018Z,26.02
2019-02-18T04:44:13.064Z,30.37
2019-02-18T04:46:40.088Z,22.50
2019-02-18T04:49:07.136Z,25.35
2019-02-18T04:51:34.171Z,27.30
2019-02-18T04:54:01.202Z,26.17
2019-02-18T04:56:28.223Z,24.70
2019-02-18T04:58:55.285Z,23.00
2019-02-18T05:01:22.320Z,24.02
2019-02-18T05:03:49.366Z,25.08
2019-02-18T05:06:16.417Z,28.77
2019-02-18T05:08:43.467Z,22.50
2019-02-18T05:11:10.580Z,23.47
2019-02-18T05:13:37.617Z,23.73
2019-02-18T05:16:04.673Z,26.17
2019-02-18T05:18:31.708Z,23.25
2019-02-18T05:20:58.765Z,28.50
2019-02-18T05:23:25.801Z,17.80
2019-02-18T05:25:52.838Z,27.17
2019-02-18T05:28:19.884Z,26.60
2019-02-18T05:30:46.894Z,21.37
2019-02-18T05:33:13.943Z,23.00
2019-02-18T05:35:40.961Z,19.40
2019-02-18T05:38:07.989Z,19.75
2019-02-18T05:40:35.016Z,22.65
2019-02-18T05:43:02.058Z,15.75
2019-02-18T05:45:29.109Z,18.70
2019-02-18T05:47:56.161Z,19.48
2019-02-18T05:50:23.197Z,30.15
2019-02-18T05:52:50.246Z,28.50
2019-02-18T05:55:19.396Z,29.67
2019-02-18T05:57:46.505Z,20.35
2019-02-18T06:00:14.227Z,18.07
2019-02-18T06:02:41.261Z,24.05
2019-02-18T06:05:08.313Z,20.30
2019-02-18T06:07:35.340Z,18.50
2019-02-18T06:10:02.553Z,13.40
2019-02-18T06:12:29.599Z,13.68
2019-02-18T06:14:56.650Z,11.43
2019-02-18T06:17:23.682Z,12.82
2019-02-18T06:19:50.747Z,13.85
2019-02-18T06:22:17.787Z,14.55
2019-02-18T06:24:44.817Z,15.13
2019-02-18T06:27:11.958Z,13.10
2019-02-18T06:29:38.987Z,21.73
2019-02-18T06:32:06.045Z,19.57
2019-02-18T06:34:33.078Z,18.77
2019-02-18T06:37:00.135Z,25.10
2019-02-18T06:39:27.165Z,19.95
2019-02-18T06:41:54.212Z,25.52
2019-02-18T06:44:29.856Z,20.27
2019-02-18T06:47:07.022Z,20.20
2019-02-18T06:49:34.275Z,15.50
2019-02-18T06:52:01.428Z,20.55
2019-02-18T06:54:28.472Z,24.27
2019-02-18T06:57:08.422Z,33.80
2019-02-18T06:59:42.367Z,19.52
2019-02-18T07:02:19.440Z,26.60
2019-02-18T07:04:52.884Z,25.20
2019-02-18T07:07:40.520Z,20.95
2019-02-18T07:10:25.642Z,22.22
2019-02-18T07:12:53.202Z,17.10
2019-02-18T07:15:20.246Z,26.20
2019-02-18T07:17:47.265Z,18.73
2019-02-18T07:20:14.285Z,34.08
2019-02-18T07:22:41.346Z,23.30
2019-02-18T07:25:08.918Z,28.70
2019-02-18T07:27:35.967Z,23.32
2019-02-18T07:30:04.138Z,26.87
2019-02-18T07:32:31.481Z,23.47
2019-02-18T07:34:58.505Z,23.27
2019-02-18T07:37:25.536Z,24.15
2019-02-18T07:40:01.069Z,21.68
2019-02-18T07:42:21.512Z,20.52
2019-02-18T07:44:48.558Z,22.15
2019-02-18T07:47:15.599Z,20.50
2019-02-18T07:49:42.625Z,20.45
2019-02-18T07:52:09.691Z,19.77
2019-02-18T07:54:36.726Z,19.70
2019-02-18T07:57:03.750Z,27.32
2019-02-18T07:59:30.995Z,24.60
2019-02-18T08:01:58.033Z,25.55
2019-02-18T08:04:25.085Z,26.93
2019-02-18T08:06:52.116Z,36.77
2019-02-18T08:09:19.155Z,28.32
2019-02-18T08:11:46.191Z,31.17
2019-02-18T08:14:13.240Z,28.55
2019-02-18T08:16:40.293Z,23.02
2019-02-18T08:19:07.377Z,16.20
2019-02-18T08:21:34.392Z,17.05
2019-02-18T08:24:01.460Z,26.77
2019-02-18T08:26:28.529Z,19.62
2019-02-18T08:28:55.555Z,21.23
2019-02-18T08:31:22.604Z,26.05
2019-02-18T08:33:49.646Z,26.77
2019-02-18T08:36:16.727Z,27.22
2019-02-18T08:38:43.773Z,17.77
2019-02-18T08:41:10.820Z,22.55
2019-02-18T08:43:37.859Z,21.85
2019-02-18T08:46:04.889Z,16.82
2019-02-18T08:48:31.939Z,21.12
2019-02-18T08:50:58.984Z,27.48
2019-02-18T08:53:26.027Z,23.32
2019-02-18T08:55:53.071Z,19.27
2019-02-18T08:58:20.118Z,27.80
2019-02-18T09:00:47.159Z,18.98
2019-02-18T09:03:14.206Z,14.63
2019-02-18T09:05:41.240Z,14.28
2019-02-18T09:08:08.295Z,17.87
2019-02-18T09:10:35.334Z,26.45
2019-02-18T09:13:02.415Z,28.40
2019-02-18T09:15:29.490Z,22.35
2019-02-18T09:17:56.536Z,23.30
2019-02-18T09:20:25.640Z,22.30
2019-02-18T09:23:00.866Z,17.95
2019-02-18T09:25:35.722Z,13.58
2019-02-18T09:28:02.774Z,10.05
2019-02-18T09:30:32.209Z,13.62
2019-02-18T09:32:59.253Z,19.92
2019-02-18T09:35:26.288Z,23.45
2019-02-18T09:37:53.322Z,11.90
2019-02-18T09:40:20.368Z,9.00
2019-02-18T09:42:47.408Z,8.65
2019-02-18T09:45:14.941Z,10.08
2019-02-18T09:47:41.985Z,8.60
2019-02-18T09:50:09.112Z,12.13
2019-02-18T09:52:36.158Z,11.48
2019-02-18T09:55:03.345Z,10.95
2019-02-18T09:57:30.374Z,9.78
2019-02-18T09:59:57.432Z,10.08
2019-02-18T10:02:24.468Z,6.60
2019-02-18T10:04:51.518Z,10.63
2019-02-18T10:07:18.560Z,10.90
2019-02-18T10:09:45.615Z,8.13
2019-02-18T10:12:18.325Z,7.42
2019-02-18T10:14:41.628Z,7.85
2019-02-18T10:17:08.682Z,6.22
2019-02-18T10:19:35.763Z,5.35
2019-02-18T10:22:02.816Z,5.30
2019-02-18T10:24:29.893Z,10.63
2019-02-18T10:26:56.967Z,7.83
2019-02-18T10:29:24.025Z,7.70
2019-02-18T10:31:51.073Z,9.78
2019-02-18T10:34:18.111Z,10.08
2019-02-18T10:36:45.169Z,12.33
2019-02-18T10:39:12.199Z,6.10
2019-02-18T10:41:39.231Z,10.00
2019-02-18T10:44:06.269Z,13.62
2019-02-18T10:46:33.319Z,10.60
2019-02-18T10:49:00.365Z,10.18
2019-02-18T10:51:27.404Z,8.90
2019-02-18T10:53:54.457Z,10.80
2019-02-18T10:56:21.494Z,8.20
2019-02-18T10:58:48.539Z,11.73
2019-02-18T11:01:15.599Z,16.93
2019-02-18T11:03:42.663Z,9.27
2019-02-18T11:06:09.712Z,10.53
2019-02-18T11:08:36.798Z,13.70
2019-02-18T11:11:03.849Z,7.77
2019-02-18T11:13:30.904Z,8.25
2019-02-18T11:15:57.967Z,8.40
2019-02-18T11:18:25.236Z,8.73
2019-02-18T11:20:52.308Z,13.58
2019-02-18T11:23:19.356Z,9.03
2019-02-18T11:25:46.601Z,8.80
2019-02-18T11:28:13.656Z,12.13
2019-02-18T11:30:40.725Z,15.63
2019-02-18T11:33:07.791Z,7.97
2019-02-18T11:35:34.869Z,26.60
2019-02-18T11:38:01.929Z,7.13
2019-02-18T11:40:29.000Z,10.03
2019-02-18T11:42:56.046Z,10.20
2019-02-18T11:45:23.098Z,8.10
2019-02-18T11:47:50.172Z,10.80
2019-02-18T11:50:17.192Z,7.17
2019-02-18T11:52:44.216Z,11.80
2019-02-18T11:55:12.582Z,11.13
2019-02-18T11:57:40.129Z,7.53
2019-02-18T12:00:08.647Z,6.57
2019-02-18T12:02:35.690Z,11.33
2019-02-18T12:05:02.838Z,7.97
2019-02-18T12:07:29.879Z,8.03
2019-02-18T12:09:57.046Z,17.23
2019-02-18T12:12:24.164Z,12.00
2019-02-18T12:14:51.192Z,7.53
2019-02-18T12:17:20.768Z,10.27
2019-02-18T12:19:47.588Z,8.40
2019-02-18T12:22:14.630Z,8.23
2019-02-18T12:24:41.689Z,9.90
2019-02-18T12:27:08.733Z,10.23
2019-02-18T12:29:35.769Z,8.37
2019-02-18T12:32:02.846Z,8.67
2019-02-18T12:34:29.884Z,7.30
2019-02-18T12:36:56.912Z,10.10
2019-02-18T12:39:23.960Z,8.07
2019-02-18T12:41:50.992Z,8.40
2019-02-18T12:44:18.058Z,9.47
2019-02-18T12:46:45.103Z,7.43
2019-02-18T12:49:12.149Z,6.17
2019-02-18T12:51:39.201Z,9.20
2019-02-18T12:54:06.463Z,12.23
2019-02-18T12:56:33.516Z,8.10
2019-02-18T12:59:00.565Z,7.20
2019-02-18T13:01:27.874Z,7.57
2019-02-18T13:03:54.961Z,15.37
2019-02-18T13:06:21.995Z,7.93
2019-02-18T13:08:49.065Z,11.00
2019-02-18T13:11:16.105Z,9.30
2019-02-18T13:13:43.141Z,7.00
2019-02-18T13:16:10.312Z,8.00
2019-02-18T13:18:37.475Z,7.97
2019-02-18T13:21:04.522Z,8.67
2019-02-18T13:23:31.588Z,14.93
2019-02-18T13:25:58.644Z,7.10
2019-02-18T13:28:25.710Z,9.23
2019-02-18T13:30:52.781Z,6.90
2019-02-18T13:33:19.846Z,9.40
2019-02-18T13:35:48.759Z,7.47
2019-02-18T13:38:15.952Z,8.27
2019-02-18T13:40:42.998Z,7.70
2019-02-18T13:43:10.058Z,11.97
2019-02-18T13:45:37.144Z,7.87
2019-02-18T13:48:04.193Z,8.20
2019-02-18T13:50:31.249Z,5.53
2019-02-18T13:52:58.305Z,9.30
2019-02-18T13:55:25.541Z,10.13
2019-02-18T13:57:52.587Z,6.13
2019-02-18T14:00:20.285Z,8.03
2019-02-18T14:02:47.849Z,7.17
2019-02-18T14:05:15.124Z,15.93
2019-02-18T14:07:42.197Z,7.20
2019-02-18T14:10:09.284Z,12.30
2019-02-18T14:12:36.754Z,9.43
2019-02-18T14:15:04.245Z,5.03
